Time;durP1;ratioP1;P1;durP2;ratioP2;P2;SDS_P1;SDS_P2;PMS_P1;PMS_P2;Temp;Humidity;BMP_temperature;BMP_pressure;BME280_temperature;BME280_humidity;BME280_pressure;Samples;Min_cycle;Max_cycle;Signal;HPM_P1;HPM_P2
2021/05/14 00:02:33;;;;;;;11.75;8.33;;;;;;;13.57;83.59;97462.05;4084010;86;21985;-83
2021/05/14 00:08:34;;;;;;;11.25;8.03;;;;;;;13.50;83.19;97463.62;4055971;86;21434;-81
2021/05/14 00:14:36;;;;;;;10.93;7.87;;;;;;;13.49;83.31;97470.30;4088874;86;21648;-84
2021/05/14 00:20:37;;;;;;;9.48;7.45;;;;;;;13.44;83.72;97470.22;4051276;87;21105;-83
2021/05/14 00:26:38;;;;;;;9.68;7.45;;;;;;;13.45;83.98;97475.88;3983011;88;21108;-83
2021/05/14 00:32:40;;;;;;;10.88;8.13;;;;;;;13.41;83.78;97470.30;4055014;87;21633;-86
2021/05/14 00:38:41;;;;;;;10.03;7.72;;;;;;;13.47;83.87;97466.61;4056612;86;21115;-82
2021/05/14 00:44:46;;;;;;;9.75;7.62;;;;;;;13.50;83.84;97464.98;4086539;87;21171;-83
2021/05/14 00:50:48;;;;;;;9.70;7.55;;;;;;;13.44;83.89;97467.47;4104955;86;21588;-83
2021/05/14 00:56:49;;;;;;;10.98;8.20;;;;;;;13.38;84.26;97476.06;4063422;86;21086;-84
2021/05/14 01:02:52;;;;;;;12.25;8.25;;;;;;;13.33;84.28;97467.55;4000762;88;21057;-85
2021/05/14 01:08:59;;;;;;;11.28;7.83;;;;;;;13.32;84.35;97468.16;4058123;86;21087;-86
2021/05/14 01:15:00;;;;;;;10.40;7.60;;;;;;;13.27;84.55;97473.38;3985208;88;21090;-84
2021/05/14 01:21:02;;;;;;;12.07;8.68;;;;;;;13.15;84.73;97461.70;4008298;88;21087;-86
2021/05/14 01:27:04;;;;;;;12.43;7.33;;;;;;;13.20;84.90;97465.33;4093965;86;21760;-84
2021/05/14 01:33:06;;;;;;;12.10;9.00;;;;;;;13.20;85.07;97463.95;4068606;86;21156;-85
2021/05/14 01:39:11;;;;;;;12.00;9.45;;;;;;;13.20;85.32;97465.33;4036916;86;21149;-83
2021/05/14 01:45:13;;;;;;;12.15;8.33;;;;;;;13.18;85.51;97463.59;3976789;89;21142;-84
2021/05/14 01:51:19;;;;;;;11.65;8.78;;;;;;;13.17;85.51;97462.06;3990086;89;21797;-84
2021/05/14 01:57:20;;;;;;;12.33;8.78;;;;;;;13.24;85.58;97461.29;3984786;89;21125;-85
2021/05/14 02:03:22;;;;;;;9.33;6.75;;;;;;;13.26;85.75;97452.61;3995599;89;21175;-84
2021/05/14 02:09:23;;;;;;;9.80;7.47;;;;;;;13.29;85.74;97462.74;3992810;89;21044;-84
2021/05/14 02:15:24;;;;;;;13.95;9.20;;;;;;;13.25;85.74;97468.32;3987761;89;21727;-85
2021/05/14 02:21:25;;;;;;;16.30;10.40;;;;;;;13.16;85.90;97474.23;4028471;86;21056;-84
2021/05/14 02:27:28;;;;;;;13.32;10.65;;;;;;;13.24;86.00;97471.50;4048590;87;21082;-84
2021/05/14 02:33:29;;;;;;;13.95;9.58;;;;;;;13.25;86.08;97471.69;4067161;87;21604;-84
2021/05/14 02:39:31;;;;;;;16.32;11.40;;;;;;;13.31;86.16;97478.22;4051864;86;21178;-85
2021/05/14 02:45:33;;;;;;;16.65;10.40;;;;;;;13.32;86.01;97482.50;4079708;86;21600;-84
2021/05/14 02:51:34;;;;;;;19.98;11.95;;;;;;;13.41;86.04;97481.29;4080457;86;21092;-86
2021/05/14 02:57:36;;;;;;;17.98;12.35;;;;;;;13.28;86.17;97477.08;4051678;86;38718;-86
2021/05/14 03:03:37;;;;;;;15.32;11.00;;;;;;;13.30;86.13;97480.77;4015787;87;21648;-85
2021/05/14 03:09:39;;;;;;;19.37;11.38;;;;;;;13.27;86.32;97487.13;4016017;87;21095;-86
2021/05/14 03:15:40;;;;;;;19.60;11.95;;;;;;;13.29;86.36;97494.34;4016880;87;21650;-86
2021/05/14 03:21:41;;;;;;;19.57;13.08;;;;;;;13.35;86.35;97498.12;4020701;87;21081;-86
2021/05/14 03:27:42;;;;;;;21.20;13.40;;;;;;;13.42;86.20;97503.47;4015039;87;22248;-86
2021/05/14 03:33:44;;;;;;;21.85;15.68;;;;;;;13.38;85.98;97497.27;4018308;87;21131;-87
2021/05/14 03:39:50;;;;;;;22.55;15.55;;;;;;;13.33;86.22;97499.15;4071821;86;21103;-86
2021/05/14 03:45:50;;;;;;;23.35;17.20;;;;;;;13.32;86.32;97507.23;4074809;86;21083;-85
2021/05/14 03:51:51;;;;;;;24.70;17.77;;;;;;;13.33;86.29;97508.17;4077814;86;21107;-86
2021/05/14 03:57:53;;;;;;;25.92;17.90;;;;;;;13.29;86.17;97509.46;4077874;86;21077;-86
2021/05/14 04:03:55;;;;;;;34.40;23.98;;;;;;;13.32;86.35;97525.09;4086205;83;21507;-85
2021/05/14 04:10:11;;;;;;;36.58;24.75;;;;;;;13.30;86.41;97520.62;4169636;84;22392;-85
2021/05/14 04:16:07;;;;;;;38.53;24.40;;;;;;;13.28;86.42;97525.79;4167671;84;21674;-86
2021/05/14 04:22:09;;;;;;;38.30;24.12;;;;;;;13.25;86.60;97526.64;4169775;84;21122;-86
2021/05/14 04:28:10;;;;;;;34.75;23.35;;;;;;;13.29;86.57;97530.07;4169840;84;21745;-83
2021/05/14 04:34:12;;;;;;;36.28;24.52;;;;;;;13.27;86.61;97533.25;4166320;84;21072;-84
2021/05/14 04:40:14;;;;;;;39.13;25.90;;;;;;;13.25;86.63;97534.27;4170838;84;21116;-85
2021/05/14 04:46:15;;;;;;;41.02;26.55;;;;;;;13.22;86.83;97530.22;4172471;84;21091;-85
2021/05/14 04:52:20;;;;;;;36.03;24.80;;;;;;;13.26;86.79;97539.17;4173448;84;21119;-85
2021/05/14 04:58:21;;;;;;;43.28;25.68;;;;;;;13.25;86.86;97541.14;4174777;84;21587;-86
2021/05/14 05:04:23;;;;;;;37.45;24.65;;;;;;;13.20;86.78;97544.38;4173989;84;21056;-85
2021/05/14 05:10:25;;;;;;;41.50;28.47;;;;;;;13.20;87.04;97540.89;4177506;84;21059;-84
2021/05/14 05:16:26;;;;;;;39.03;26.42;;;;;;;13.16;86.91;97543.70;4178681;84;21088;-84
2021/05/14 05:22:27;;;;;;;40.40;26.05;;;;;;;13.18;86.90;97547.40;4177256;84;21055;-85
2021/05/14 05:28:30;;;;;;;50.75;26.70;;;;;;;13.07;87.00;97555.09;4182349;84;21055;-84
2021/05/14 05:34:32;;;;;;;42.15;24.57;;;;;;;13.07;87.14;97559.22;4161594;84;21062;-85
2021/05/14 05:40:33;;;;;;;39.27;25.60;;;;;;;13.07;87.31;97572.36;4176673;84;21604;-85
2021/05/14 05:46:35;;;;;;;37.38;23.98;;;;;;;13.14;87.29;97570.07;4173127;84;21072;-85
2021/05/14 05:52:37;;;;;;;33.38;22.75;;;;;;;13.06;87.45;97581.03;4171558;84;21147;-86
2021/05/14 05:58:38;;;;;;;34.48;24.07;;;;;;;13.11;87.48;97586.78;4169496;84;21383;-85
2021/05/14 06:04:40;;;;;;;36.08;24.37;;;;;;;13.19;87.30;97589.56;4173232;84;21063;-85
2021/05/14 06:10:42;;;;;;;39.20;24.23;;;;;;;13.19;87.41;97601.14;4174943;84;21502;-85
2021/05/14 06:16:44;;;;;;;36.45;21.68;;;;;;;13.24;87.33;97606.14;4171387;84;21849;-87
2021/05/14 06:22:47;;;;;;;27.02;18.55;;;;;;;13.22;87.36;97615.41;4169961;84;21072;-85
2021/05/14 06:28:48;;;;;;;37.42;21.97;;;;;;;13.21;87.32;97630.35;4172011;84;21099;-86
2021/05/14 06:34:51;;;;;;;27.02;18.98;;;;;;;13.24;87.38;97635.78;4167988;84;21084;-85
2021/05/14 06:40:53;;;;;;;27.07;18.15;;;;;;;13.27;87.45;97635.52;4170000;84;21091;-87
2021/05/14 06:46:54;;;;;;;28.07;18.15;;;;;;;13.36;87.40;97645.36;4172624;84;21127;-86
2021/05/14 06:52:56;;;;;;;26.35;18.75;;;;;;;13.41;87.42;97652.48;4173619;84;22158;-86
2021/05/14 06:58:57;;;;;;;27.52;19.85;;;;;;;13.39;87.21;97650.00;4169146;84;21037;-87
2021/05/14 07:04:59;;;;;;;28.40;19.77;;;;;;;13.38;87.22;97657.47;4171336;84;21091;-87
2021/05/14 07:11:01;;;;;;;28.62;19.42;;;;;;;13.42;87.29;97660.14;4173618;84;21651;-85
2021/05/14 07:17:02;;;;;;;35.95;20.85;;;;;;;13.45;87.16;97665.55;4174191;84;21100;-88
2021/05/14 07:23:04;;;;;;;28.25;20.08;;;;;;;13.48;87.10;97674.94;4171218;84;21088;-86
2021/05/14 07:29:07;;;;;;;29.25;19.52;;;;;;;13.44;86.99;97683.84;4169356;84;21368;-84
2021/05/14 07:35:09;;;;;;;32.33;20.37;;;;;;;13.48;87.09;97683.18;4169850;84;21079;-85
2021/05/14 07:41:11;;;;;;;30.70;20.10;;;;;;;13.56;87.13;97688.70;4170422;84;21091;-85
2021/05/14 07:47:12;;;;;;;29.05;19.73;;;;;;;13.61;86.83;97699.18;4171841;84;21056;-85
2021/05/14 07:53:14;;;;;;;25.82;18.05;;;;;;;13.61;86.86;97696.43;4170918;84;21688;-86
2021/05/14 07:59:16;;;;;;;29.67;21.02;;;;;;;13.67;86.91;97701.01;4171491;84;21104;-86
2021/05/14 08:05:17;;;;;;;36.20;22.15;;;;;;;13.70;86.71;97701.53;4174279;84;21682;-85
2021/05/14 08:11:19;;;;;;;40.73;22.07;;;;;;;13.70;86.85;97702.91;4172796;84;21044;-85
2021/05/14 08:17:21;;;;;;;36.75;22.73;;;;;;;13.78;87.13;97708.42;4172043;84;21124;-85
2021/05/14 08:23:22;;;;;;;40.63;22.77;;;;;;;13.89;86.96;97715.09;4174383;84;21036;-84
2021/05/14 08:29:25;;;;;;;35.48;23.07;;;;;;;13.98;86.85;97720.16;4172301;84;21572;-85
2021/05/14 08:35:26;;;;;;;33.05;22.15;;;;;;;13.99;86.67;97729.19;4169871;84;21083;-84
2021/05/14 08:41:28;;;;;;;39.98;25.30;;;;;;;14.03;86.90;97731.28;4168877;84;21393;-84
2021/05/14 08:47:31;;;;;;;40.33;24.57;;;;;;;14.07;86.79;97736.09;4173645;84;21076;-84
2021/05/14 08:53:33;;;;;;;40.00;24.43;;;;;;;14.11;86.86;97740.30;4171135;84;21075;-84
2021/05/14 08:59:34;;;;;;;45.65;28.40;;;;;;;14.04;86.92;97743.23;4172236;84;21032;-83
2021/05/14 09:05:36;;;;;;;37.73;24.67;;;;;;;14.12;87.01;97745.22;4173430;84;21160;-85
2021/05/14 09:11:48;;;;;;;36.68;24.15;;;;;;;14.20;86.62;97749.36;4172504;84;21036;-83
2021/05/14 09:18:10;;;;;;;36.15;22.00;;;;;;;14.20;86.80;97756.23;4172733;84;21091;-85
2021/05/14 09:24:11;;;;;;;34.92;23.47;;;;;;;14.43;87.05;97766.34;4171716;84;21124;-85
2021/05/14 09:30:14;;;;;;;41.13;25.80;;;;;;;14.76;86.96;97768.68;4173254;84;21064;-85
2021/05/14 09:36:43;;;;;;;35.80;23.65;;;;;;;14.89;86.88;97772.89;4173119;84;21231;-85
2021/05/14 09:42:47;;;;;;;37.30;24.18;;;;;;;14.98;86.54;97780.72;4126865;84;21103;-86
2021/05/14 09:49:06;;;;;;;41.35;27.55;;;;;;;14.99;86.43;97779.50;4099169;85;21091;-85
2021/05/14 09:55:13;;;;;;;35.78;23.67;;;;;;;15.04;86.21;97778.20;4096543;85;21074;-85
2021/05/14 10:01:14;;;;;;;;;;;;;;;15.19;85.63;97780.14;4098144;85;21627;-85
2021/05/14 10:07:21;;;;;;;44.45;28.20;;;;;;;15.31;85.19;97780.05;4092058;84;70422;-83
2021/05/14 10:13:23;;;;;;;38.35;26.70;;;;;;;15.45;85.15;97779.09;4065186;85;24594;-81
2021/05/14 10:19:24;;;;;;;32.75;21.70;;;;;;;15.69;85.17;97786.51;3978096;87;22021;-84
2021/05/14 10:25:47;;;;;;;30.85;19.85;;;;;;;15.93;84.71;97782.87;4032683;87;21114;-82
2021/05/14 10:31:48;;;;;;;32.08;23.27;;;;;;;16.14;83.80;97783.59;4045873;86;21124;-85
2021/05/14 10:37:59;;;;;;;30.80;22.50;;;;;;;16.38;82.44;97789.73;4080013;85;21037;-86
2021/05/14 10:44:06;;;;;;;25.77;18.32;;;;;;;16.62;82.34;97786.05;4091498;85;21056;-83
2021/05/14 10:50:19;;;;;;;;;;;;;;;17.07;81.64;97776.84;4089385;86;21025;-84
2021/05/14 10:56:26;;;;;;;25.23;16.80;;;;;;;17.43;79.60;97788.23;4078128;86;20222;-84
2021/05/14 11:02:31;;;;;;;20.88;14.38;;;;;;;17.68;79.63;97797.08;4105414;85;21168;-85
2021/05/14 11:08:39;;;;;;;21.80;15.60;;;;;;;17.89;79.34;97805.98;4053544;86;21088;-86
2021/05/14 11:14:46;;;;;;;18.85;14.33;;;;;;;17.96;78.95;97800.95;3967848;88;21072;-85
2021/05/14 11:20:48;;;;;;;19.57;13.08;;;;;;;18.12;77.65;97811.06;4017034;86;240096;-85
2021/05/14 11:27:18;;;;;;;14.83;12.15;;;;;;;18.26;78.37;97811.28;4045641;86;21091;-83
2021/05/14 11:33:26;;;;;;;16.60;10.60;;;;;;;18.71;77.66;97819.06;4043394;86;21147;-84
2021/05/14 11:39:27;;;;;;;14.38;10.95;;;;;;;19.23;75.39;97822.28;3924987;88;21142;-85
2021/05/14 11:45:40;;;;;;;18.20;11.40;;;;;;;19.42;74.81;97824.64;4012989;86;21115;-86
2021/05/14 11:51:46;;;;;;;13.08;10.53;;;;;;;19.51;74.35;97827.41;4017767;87;22267;-86
2021/05/14 11:57:52;;;;;;;14.03;9.63;;;;;;;19.57;73.66;97828.97;4019377;86;22308;-84
2021/05/14 12:03:57;;;;;;;;;;;;;;;19.94;72.92;97839.60;4017105;87;21107;-86
2021/05/14 12:10:15;;;;;;;8.93;7.22;;;;;;;19.83;70.76;97850.41;4010810;88;20208;-85
2021/05/14 12:16:18;;;;;;;6.97;5.72;;;;;;;19.48;70.55;97838.69;4007249;87;21995;-84
2021/05/14 12:22:20;;;;;;;7.20;5.55;;;;;;;19.37;71.55;97850.22;4026102;87;21194;-85
2021/05/14 12:28:41;;;;;;;7.40;5.40;;;;;;;19.43;69.71;97860.89;4109771;84;79090;-87
2021/05/14 12:34:52;;;;;;;9.10;6.65;;;;;;;19.45;68.68;97867.36;4137919;84;21127;-86
2021/05/14 12:40:54;;;;;;;10.98;6.92;;;;;;;19.59;69.84;97873.70;4070322;85;21703;-86
2021/05/14 12:47:10;;;;;;;6.62;5.65;;;;;;;19.67;68.90;97865.98;4166557;83;32657;-84
2021/05/14 12:53:21;;;;;;;11.30;6.20;;;;;;;19.84;69.21;97873.41;4108396;86;21126;-86
2021/05/14 12:59:23;;;;;;;7.75;6.15;;;;;;;19.84;68.51;97869.23;4053062;87;21127;-85
2021/05/14 13:05:44;;;;;;;7.65;6.45;;;;;;;20.00;67.04;97875.23;4003633;87;21115;-85
2021/05/14 13:11:45;;;;;;;12.55;7.25;;;;;;;20.05;67.09;97882.95;4101318;86;21100;-84
2021/05/14 13:17:48;;;;;;;8.23;5.67;;;;;;;20.13;67.16;97891.74;4111720;86;21457;-84
2021/05/14 13:23:49;;;;;;;6.90;4.17;;;;;;;20.16;66.70;97892.23;4108232;86;21547;-86
2021/05/14 13:29:51;;;;;;;7.72;3.90;;;;;;;20.08;65.90;97897.30;4101381;86;21074;-85
2021/05/14 13:35:52;;;;;;;5.58;3.90;;;;;;;19.70;66.17;97912.25;4111534;86;21611;-84
2021/05/14 13:41:54;;;;;;;8.10;4.67;;;;;;;19.41;66.01;97912.52;4112191;86;21086;-86
2021/05/14 13:47:58;;;;;;;8.50;6.60;;;;;;;19.41;65.58;97923.01;4084068;85;21116;-86
2021/05/14 13:53:59;;;;;;;11.88;9.20;;;;;;;19.56;65.58;97928.11;4088814;85;21117;-85
2021/05/14 14:00:01;;;;;;;20.92;11.12;;;;;;;19.35;65.06;97934.56;4087552;85;21097;-85
2021/05/14 14:06:04;;;;;;;16.70;10.32;;;;;;;19.62;65.58;97932.46;3945320;88;21104;-87
2021/05/14 14:12:07;;;;;;;16.80;11.85;;;;;;;19.78;63.46;97937.73;4084908;85;21714;-86
2021/05/14 14:18:08;;;;;;;18.85;13.32;;;;;;;19.56;64.52;97948.94;4089283;85;21075;-86
2021/05/14 14:24:12;;;;;;;16.32;12.65;;;;;;;19.63;64.24;97944.49;4083236;85;21120;-87
2021/05/14 14:30:15;;;;;;;21.40;15.70;;;;;;;19.30;64.06;97955.18;4086895;85;21696;-86
2021/05/14 14:36:16;;;;;;;23.12;15.78;;;;;;;18.98;64.30;97963.97;4077974;85;21100;-86
2021/05/14 14:42:17;;;;;;;23.40;16.45;;;;;;;18.63;64.20;97969.64;4084325;85;21179;-87
2021/05/14 14:48:19;;;;;;;24.85;16.17;;;;;;;18.39;64.49;97973.30;4130316;84;21415;-85
2021/05/14 14:54:20;;;;;;;24.23;16.95;;;;;;;18.18;64.36;97976.82;4082909;85;21036;-85
2021/05/14 15:00:22;;;;;;;21.17;15.38;;;;;;;18.26;64.71;97989.20;4085973;85;21058;-86
2021/05/14 15:06:23;;;;;;;24.67;16.05;;;;;;;18.08;64.83;97983.49;4087141;85;21078;-85
2021/05/14 15:12:25;;;;;;;20.05;15.75;;;;;;;17.80;64.88;97986.63;4085431;85;21080;-86
2021/05/14 15:18:28;;;;;;;24.60;15.70;;;;;;;17.35;65.05;97995.02;4082381;85;21109;-85
2021/05/14 15:24:29;;;;;;;20.60;14.20;;;;;;;17.01;65.50;98005.34;4072009;85;21088;-84
2021/05/14 15:30:31;;;;;;;25.40;16.17;;;;;;;16.89;65.99;98011.63;4072895;85;21160;-86
2021/05/14 15:36:32;;;;;;;25.70;17.20;;;;;;;16.90;65.82;98011.78;4080849;85;21117;-84
2021/05/14 15:42:35;;;;;;;22.00;15.45;;;;;;;16.84;65.90;98014.94;4085297;85;22063;-85
2021/05/14 15:48:47;;;;;;;22.25;13.30;;;;;;;16.76;66.60;98011.61;4080125;85;22384;-85
2021/05/14 15:54:52;;;;;;;21.73;14.90;;;;;;;16.85;66.76;98016.50;4080484;85;21505;-85
2021/05/14 16:00:53;;;;;;;22.77;13.72;;;;;;;16.74;66.32;98015.41;4080017;85;21630;-85
2021/05/14 16:06:54;;;;;;;19.73;12.73;;;;;;;16.51;67.08;98012.14;4091535;85;21587;-86
2021/05/14 16:13:02;;;;;;;19.80;12.13;;;;;;;16.46;67.17;98023.75;4093961;85;21097;-85
2021/05/14 16:19:05;;;;;;;15.78;11.38;;;;;;;16.27;67.13;98029.53;4045536;83;133888;-86
2021/05/14 16:25:12;;;;;;;17.90;12.78;;;;;;;16.14;67.71;98038.38;4026283;87;21224;-84
2021/05/14 16:31:14;;;;;;;12.82;10.65;;;;;;;15.93;68.14;98048.57;4032020;86;21154;-85
2021/05/14 16:37:16;;;;;;;17.92;10.48;;;;;;;15.70;68.79;98044.63;4028396;87;21099;-85
2021/05/14 16:43:17;;;;;;;16.65;10.38;;;;;;;15.60;69.01;98060.22;4032056;86;21718;-86
2021/05/14 16:49:19;;;;;;;11.85;10.10;;;;;;;15.39;69.43;98060.70;4015160;86;21091;-85
2021/05/14 16:55:21;;;;;;;11.90;8.98;;;;;;;15.15;69.55;98067.53;3919797;85;9999602;-86
2021/05/14 17:01:22;;;;;;;11.78;8.73;;;;;;;14.94;70.37;98072.11;4010303;86;21064;-85
2021/05/14 17:07:24;;;;;;;12.35;8.25;;;;;;;14.84;70.53;98077.25;4013124;87;21464;-85
2021/05/14 17:13:25;;;;;;;11.40;9.33;;;;;;;14.77;71.27;98088.41;3901937;89;21928;-86
2021/05/14 17:19:27;;;;;;;11.90;8.10;;;;;;;14.70;71.45;98096.82;4005723;87;21151;-86
2021/05/14 17:25:28;;;;;;;12.15;8.65;;;;;;;14.54;71.57;98106.38;4001727;87;21123;-86
2021/05/14 17:31:30;;;;;;;10.63;8.00;;;;;;;14.40;72.07;98113.52;3996773;87;21891;-87
2021/05/14 17:37:32;;;;;;;10.32;7.90;;;;;;;14.25;72.39;98112.81;3981514;87;21960;-84
2021/05/14 17:43:34;;;;;;;10.43;7.67;;;;;;;14.15;72.67;98122.19;4027477;86;21698;-87
2021/05/14 17:49:36;;;;;;;10.78;8.00;;;;;;;13.96;72.91;98126.23;3950382;88;21629;-85
2021/05/14 17:55:39;;;;;;;8.08;6.55;;;;;;;13.86;73.08;98121.67;3888568;89;21193;-84
2021/05/14 18:01:40;;;;;;;8.93;5.12;;;;;;;13.71;73.39;98137.63;3964484;88;21111;-85
2021/05/14 18:07:42;;;;;;;6.15;4.78;;;;;;;13.52;73.98;98138.30;4012373;87;21103;-84
2021/05/14 18:13:44;;;;;;;5.20;4.10;;;;;;;13.53;74.31;98150.84;3966893;88;21150;-84
2021/05/14 18:19:45;;;;;;;9.28;5.35;;;;;;;13.50;74.32;98150.92;4004506;87;21868;-84
2021/05/14 18:25:47;;;;;;;10.35;5.28;;;;;;;13.46;74.59;98155.67;4004028;87;21644;-84
2021/05/14 18:31:48;;;;;;;8.45;5.72;;;;;;;13.38;74.87;98159.11;3923600;88;21171;-85
2021/05/14 18:37:53;;;;;;;11.33;7.40;;;;;;;13.35;75.22;98164.06;3891433;89;21208;-85
2021/05/14 18:43:53;;;;;;;11.45;7.00;;;;;;;13.31;75.09;98170.19;3950472;88;21102;-85
2021/05/14 18:49:55;;;;;;;12.28;7.72;;;;;;;13.22;75.65;98180.13;4004801;88;21125;-84
2021/05/14 18:55:56;;;;;;;14.38;7.75;;;;;;;13.17;75.86;98187.47;4001758;87;21091;-85
2021/05/14 19:01:57;;;;;;;9.23;6.83;;;;;;;13.12;75.89;98206.57;4018792;86;21148;-86
2021/05/14 19:07:59;;;;;;;11.90;7.35;;;;;;;12.97;75.99;98215.32;4007905;87;21602;-85
2021/05/14 19:14:03;;;;;;;9.35;6.87;;;;;;;12.83;76.34;98224.50;4013254;84;40331;-85
2021/05/14 19:20:18;;;;;;;9.93;7.17;;;;;;;12.78;76.78;98232.41;4052027;86;21028;-85
2021/05/14 19:45:17;;;;;;;11.48;7.42;;;;;;;12.76;77.43;98254.80;3982311;87;21088;-84
2021/05/14 19:51:15;;;;;;;10.43;7.75;;;;;;;12.71;77.39;98259.34;3988553;88;21624;-85
2021/05/14 19:57:18;;;;;;;11.22;7.87;;;;;;;12.73;77.79;98267.17;4051897;86;21615;-84
2021/05/14 20:03:19;;;;;;;12.63;8.00;;;;;;;12.68;77.99;98274.47;4056414;86;21073;-85
2021/05/14 20:09:20;;;;;;;14.45;8.28;;;;;;;12.75;78.09;98276.56;4046249;87;21631;-85
2021/05/14 20:15:37;;;;;;;11.60;8.00;;;;;;;12.76;78.23;98283.63;3987085;87;21608;-85
2021/05/14 20:21:39;;;;;;;9.20;7.25;;;;;;;12.70;78.40;98293.47;4039432;86;21631;-85
2021/05/14 20:27:40;;;;;;;11.08;6.62;;;;;;;12.70;78.10;98292.70;4051655;86;21106;-84
2021/05/14 20:33:42;;;;;;;13.22;6.60;;;;;;;12.66;78.34;98298.22;4051033;86;21084;-83
2021/05/14 20:39:45;;;;;;;12.68;7.25;;;;;;;12.62;78.42;98307.85;3979781;87;21101;-84
2021/05/14 20:45:48;;;;;;;9.13;5.97;;;;;;;12.51;78.29;98314.02;3994027;88;21991;-84
2021/05/14 20:51:52;;;;;;;9.75;6.00;;;;;;;12.50;78.54;98311.67;3953482;88;21175;-84
2021/05/14 20:57:53;;;;;;;5.65;4.58;;;;;;;12.55;78.54;98314.00;3892209;89;21736;-84
2021/05/14 21:03:55;;;;;;;10.08;5.50;;;;;;;12.54;78.65;98320.68;3963109;88;21130;-85
2021/05/14 21:09:56;;;;;;;8.25;4.72;;;;;;;12.56;78.62;98314.97;3894620;89;21178;-84
2021/05/14 21:15:58;;;;;;;7.20;5.28;;;;;;;12.49;78.61;98318.36;3949322;89;21141;-85
2021/05/14 21:21:59;;;;;;;7.62;4.83;;;;;;;;;;3951372;88;21681;-84
2021/05/14 21:28:01;;;;;;;7.22;5.10;;;;;;;12.51;78.87;98325.61;3951040;88;21105;-83
2021/05/14 21:34:03;;;;;;;5.97;4.40;;;;;;;12.54;78.92;98320.68;3907088;89;21660;-84
2021/05/14 21:40:06;;;;;;;7.78;4.87;;;;;;;12.50;78.76;98322.66;3961748;88;21605;-85
2021/05/14 21:46:07;;;;;;;11.12;7.25;;;;;;;12.48;79.13;98323.06;3982868;85;21694;-84
2021/05/14 21:52:09;;;;;;;12.25;8.48;;;;;;;12.57;79.38;98318.50;3992172;87;21097;-85
2021/05/14 21:58:10;;;;;;;11.68;6.97;;;;;;;12.59;79.40;98321.63;3988953;87;21161;-84
2021/05/14 22:04:11;;;;;;;11.22;5.58;;;;;;;12.64;79.31;98326.66;3978182;88;21104;-85
2021/05/14 22:10:13;;;;;;;11.22;6.00;;;;;;;12.67;79.37;98323.11;3915321;89;21138;-85
2021/05/14 22:16:15;;;;;;;9.95;5.60;;;;;;;12.70;79.21;98326.42;3904974;89;21107;-85
2021/05/14 22:22:16;;;;;;;9.30;5.37;;;;;;;12.54;79.32;98322.81;3975779;88;21102;-84
2021/05/14 22:28:18;;;;;;;7.53;5.35;;;;;;;12.43;79.73;98334.46;3925536;89;21113;-84
2021/05/14 22:34:21;;;;;;;10.38;5.42;;;;;;;12.41;79.56;98328.61;3942795;89;22092;-84
2021/05/14 22:40:23;;;;;;;8.48;5.25;;;;;;;12.35;79.79;98332.97;3942373;89;22335;-84
2021/05/14 22:46:25;;;;;;;7.80;4.40;;;;;;;12.42;79.99;98335.66;3932290;89;21139;-85
2021/05/14 22:52:26;;;;;;;9.20;5.22;;;;;;;12.44;79.92;98331.13;3928463;88;21139;-84
2021/05/14 22:58:28;;;;;;;8.98;4.20;;;;;;;12.42;79.77;98337.61;3928025;89;21099;-84
2021/05/14 23:04:29;;;;;;;7.92;4.40;;;;;;;12.46;79.86;98340.55;3981633;87;21223;-84
2021/05/14 23:10:36;;;;;;;13.95;5.28;;;;;;;12.51;79.71;98340.09;3966549;88;21101;-85
2021/05/14 23:16:38;;;;;;;9.93;5.00;;;;;;;12.53;79.59;98346.55;3914581;89;22353;-84
2021/05/14 23:22:42;;;;;;;7.58;5.95;;;;;;;12.52;79.64;98354.03;3925117;89;21086;-83
2021/05/14 23:28:43;;;;;;;9.23;6.72;;;;;;;12.49;79.55;98349.34;3954370;88;21113;-85
2021/05/14 23:34:45;;;;;;;10.93;5.80;;;;;;;12.35;79.73;98358.25;3954362;88;21082;-84
2021/05/14 23:40:46;;;;;;;10.45;5.65;;;;;;;12.29;79.79;98361.23;3953328;88;21166;-84
2021/05/14 23:46:47;;;;;;;10.80;7.90;;;;;;;12.21;80.24;98351.48;3954835;88;21142;-84
2021/05/14 23:52:48;;;;;;;10.28;7.37;;;;;;;12.12;80.12;98349.77;3955274;88;21669;-84
2021/05/14 23:58:50;;;;;;;8.90;6.55;;;;;;;12.05;80.31;98351.16;3954783;88;21614;-84
